createdAt,value
2023-01-23T00:00:35.001Z,27.30
2023-01-23T00:05:58.867Z,26.55
2023-01-23T00:11:23.823Z,27.63
2023-01-23T00:16:45.647Z,25.52
2023-01-23T00:22:07.505Z,23.08
2023-01-23T00:27:29.622Z,28.80
2023-01-23T00:32:51.521Z,25.08
2023-01-23T00:38:13.429Z,24.42
2023-01-23T00:43:35.300Z,23.98
2023-01-23T00:48:57.180Z,28.05
2023-01-23T00:54:19.087Z,28.55
2023-01-23T00:59:41.099Z,27.23
2023-01-23T01:05:02.987Z,32.08
2023-01-23T01:10:25.108Z,26.42
2023-01-23T01:15:51.619Z,28.35
2023-01-23T01:21:15.638Z,29.95
2023-01-23T01:26:37.540Z,27.38
2023-01-23T01:31:59.434Z,31.42
2023-01-23T01:37:21.344Z,29.75
2023-01-23T01:42:45.607Z,26.13
2023-01-23T01:48:07.539Z,27.20
2023-01-23T01:53:31.686Z,30.88
2023-01-23T01:58:54.302Z,24.63
2023-01-23T02:04:16.172Z,26.42
2023-01-23T02:09:38.275Z,29.45
2023-01-23T02:15:00.682Z,29.33
2023-01-23T02:20:25.602Z,30.88
2023-01-23T02:25:59.880Z,29.38
2023-01-23T02:31:23.308Z,29.80
2023-01-23T02:36:48.200Z,29.75
2023-01-23T02:42:10.265Z,32.17
2023-01-23T02:47:32.144Z,28.33
2023-01-23T02:52:54.046Z,26.73
2023-01-23T02:58:15.916Z,30.17
2023-01-23T03:03:37.792Z,34.90
2023-01-23T03:08:59.601Z,31.65
2023-01-23T03:14:22.973Z,34.17
2023-01-23T03:19:44.878Z,32.67
2023-01-23T03:25:06.993Z,30.10
2023-01-23T03:30:28.835Z,35.58
2023-01-23T03:35:50.733Z,37.95
2023-01-23T03:41:12.587Z,34.92
2023-01-23T03:46:34.854Z,34.72
2023-01-23T03:51:56.676Z,34.58
2023-01-23T03:57:18.919Z,39.30
2023-01-23T04:02:41.224Z,36.72
2023-01-23T04:08:03.894Z,35.35
2023-01-23T04:13:25.748Z,40.20
2023-01-23T04:18:47.568Z,38.15
2023-01-23T04:24:09.374Z,35.40
2023-01-23T04:29:31.212Z,37.80
2023-01-23T04:34:53.053Z,40.00
2023-01-23T04:40:14.948Z,35.30
2023-01-23T04:45:36.832Z,31.70
2023-01-23T04:50:58.686Z,41.08
2023-01-23T04:56:20.556Z,39.78
2023-01-23T05:01:43.202Z,39.58
2023-01-23T05:07:05.273Z,37.05
2023-01-23T05:12:27.135Z,35.10
2023-01-23T05:17:49.546Z,42.78
2023-01-23T05:23:11.413Z,41.35
2023-01-23T05:28:33.422Z,44.25
2023-01-23T05:33:55.252Z,37.55
2023-01-23T05:39:17.187Z,42.78
2023-01-23T05:44:39.089Z,37.55
2023-01-23T05:50:01.221Z,36.60
2023-01-23T05:55:23.321Z,35.05
2023-01-23T06:00:45.183Z,42.92
2023-01-23T06:06:07.385Z,38.17
2023-01-23T06:11:29.256Z,33.88
2023-01-23T06:16:51.099Z,45.08
2023-01-23T06:22:12.956Z,36.50
2023-01-23T06:27:34.831Z,37.58
2023-01-23T06:32:56.875Z,35.20
2023-01-23T06:38:18.714Z,38.17
2023-01-23T06:43:40.617Z,39.15
2023-01-23T06:49:05.918Z,33.72
2023-01-23T06:54:28.051Z,37.70
2023-01-23T06:59:50.149Z,37.42
2023-01-23T07:05:12.007Z,37.75
2023-01-23T07:10:34.340Z,35.85
2023-01-23T07:15:56.258Z,35.03
2023-01-23T07:21:18.130Z,37.88
2023-01-23T07:26:40.126Z,33.63
2023-01-23T07:32:02.012Z,33.70
2023-01-23T07:37:23.897Z,31.50
2023-01-23T07:42:45.717Z,38.42
2023-01-23T07:48:08.288Z,29.75
2023-01-23T07:53:30.177Z,32.08
2023-01-23T07:58:52.153Z,33.10
2023-01-23T08:04:14.007Z,33.30
2023-01-23T08:09:35.909Z,31.75
2023-01-23T08:14:57.801Z,30.50
2023-01-23T08:20:19.950Z,33.00
2023-01-23T08:25:41.900Z,29.42
2023-01-23T08:31:06.988Z,30.48
2023-01-23T08:36:28.997Z,28.85
2023-01-23T08:41:51.208Z,28.33
2023-01-23T08:47:13.065Z,35.00
2023-01-23T08:52:34.896Z,31.38
2023-01-23T08:57:56.739Z,36.55
2023-01-23T09:03:18.573Z,35.40
2023-01-23T09:08:40.612Z,32.75
2023-01-23T09:14:02.533Z,37.55
2023-01-23T09:19:24.508Z,36.35
2023-01-23T09:24:46.352Z,32.22
2023-01-23T09:30:08.759Z,33.08
2023-01-23T09:35:31.013Z,32.05
2023-01-23T09:41:00.076Z,33.55
2023-01-23T09:46:28.775Z,32.55
2023-01-23T09:52:06.622Z,31.88
2023-01-23T09:57:39.140Z,39.63
2023-01-23T10:03:06.364Z,32.95
2023-01-23T10:08:42.719Z,40.05
2023-01-23T10:20:17.540Z,37.95
2023-01-23T10:25:40.833Z,37.38
2023-01-23T10:31:10.527Z,41.47
2023-01-23T10:37:02.313Z,44.88
2023-01-23T10:42:26.871Z,47.20
2023-01-23T10:47:54.686Z,44.90
2023-01-23T10:53:20.326Z,43.65
2023-01-23T10:58:42.828Z,43.20
2023-01-23T11:04:35.510Z,42.47
2023-01-23T11:10:23.264Z,40.10
2023-01-23T11:15:48.528Z,38.58
2023-01-23T11:21:22.601Z,35.53
2023-01-23T11:26:44.679Z,34.17
2023-01-23T11:32:13.224Z,30.77
2023-01-23T11:37:38.987Z,38.47
2023-01-23T11:43:00.858Z,24.03
2023-01-23T11:48:35.368Z,31.08
2023-01-23T11:54:20.968Z,29.88
2023-01-23T11:59:53.319Z,27.63
2023-01-23T12:05:33.793Z,32.05
2023-01-23T12:11:12.412Z,32.33
2023-01-23T12:16:36.875Z,29.40
2023-01-23T12:22:10.586Z,32.50
2023-01-23T12:27:42.438Z,35.30
2023-01-23T12:33:28.263Z,29.77
2023-01-23T12:39:38.118Z,32.78
2023-01-23T12:45:11.877Z,30.15
2023-01-23T12:50:50.366Z,30.95
2023-01-23T12:56:27.163Z,38.83
2023-01-23T13:02:07.085Z,41.25
2023-01-23T13:07:56.003Z,44.08
2023-01-23T13:13:19.080Z,41.17
2023-01-23T13:18:56.066Z,35.10
2023-01-23T13:24:44.680Z,31.05
2023-01-23T13:30:24.466Z,29.05
2023-01-23T13:35:49.300Z,33.60
2023-01-23T13:41:11.154Z,29.05
2023-01-23T14:21:18.765Z,32.35
2023-01-23T14:26:49.337Z,35.33
2023-01-23T14:32:33.056Z,32.60
2023-01-23T14:37:58.901Z,32.97
2023-01-23T14:43:23.001Z,36.08
2023-01-23T14:48:50.919Z,33.67
2023-01-23T14:54:22.787Z,32.85
2023-01-23T14:59:46.739Z,31.95
2023-01-23T15:05:10.307Z,31.63
2023-01-23T15:10:41.292Z,31.13
2023-01-23T15:16:06.472Z,31.33
2023-01-23T15:21:41.017Z,33.33
2023-01-23T15:27:06.745Z,36.45
2023-01-23T15:32:28.908Z,29.67
2023-01-23T15:37:52.940Z,31.58
2023-01-23T15:43:18.581Z,34.45
2023-01-23T15:48:40.441Z,35.30
2023-01-23T15:54:04.264Z,33.22
2023-01-23T15:59:27.027Z,37.97
2023-01-23T16:04:49.554Z,34.95
2023-01-23T16:10:22.015Z,38.42
2023-01-23T16:15:43.861Z,36.83
2023-01-23T16:21:06.280Z,38.22
2023-01-23T16:26:28.817Z,40.92
2023-01-23T16:31:50.713Z,39.55
2023-01-23T16:37:17.635Z,39.75
2023-01-23T16:42:41.047Z,44.58
2023-01-23T16:48:03.064Z,40.90
2023-01-23T16:53:31.666Z,45.60
2023-01-23T16:58:53.516Z,42.10
2023-01-23T17:04:18.995Z,43.95
2023-01-23T17:09:40.957Z,48.30
2023-01-23T17:15:03.703Z,46.38
2023-01-23T17:20:25.595Z,50.28
2023-01-23T17:25:59.253Z,43.60
2023-01-23T17:31:27.519Z,49.58
2023-01-23T17:36:50.922Z,51.75
2023-01-23T17:42:14.283Z,49.17
2023-01-23T17:47:36.354Z,51.05
2023-01-23T17:52:58.222Z,53.22
2023-01-23T17:58:20.403Z,52.60
2023-01-23T18:03:42.251Z,49.35
2023-01-23T18:09:04.133Z,52.35
2023-01-23T18:14:32.088Z,56.42
2023-01-23T18:19:54.178Z,55.00
2023-01-23T18:25:18.052Z,55.00
2023-01-23T18:30:56.805Z,54.53
2023-01-23T18:36:34.171Z,54.00
2023-01-23T18:42:14.507Z,56.60
2023-01-23T18:47:36.926Z,53.95
2023-01-23T18:53:24.800Z,56.20
2023-01-23T18:59:12.096Z,56.80
2023-01-23T19:04:41.246Z,55.88
2023-01-23T19:10:04.878Z,61.05
2023-01-23T19:15:32.381Z,55.92
2023-01-23T19:21:05.117Z,58.33
2023-01-23T19:26:39.757Z,59.58
2023-01-23T19:32:06.298Z,65.93
2023-01-23T19:37:28.571Z,66.03
2023-01-23T19:42:58.656Z,57.42
2023-01-23T19:48:27.482Z,60.60
2023-01-23T19:53:49.349Z,63.38
2023-01-23T19:59:11.452Z,63.75
2023-01-23T20:04:33.371Z,64.93
2023-01-23T20:09:55.302Z,54.90
2023-01-23T20:15:19.567Z,59.85
2023-01-23T20:20:41.527Z,64.65
2023-01-23T20:26:03.603Z,59.70
2023-01-23T20:31:25.604Z,62.38
2023-01-23T20:36:47.462Z,57.75
2023-01-23T20:42:10.653Z,57.35
2023-01-23T20:47:35.992Z,64.22
2023-01-23T20:52:57.869Z,65.65
2023-01-23T20:58:19.724Z,61.58
2023-01-23T21:03:42.189Z,59.25
2023-01-23T21:09:04.193Z,61.92
2023-01-23T21:14:26.111Z,57.47
2023-01-23T21:19:48.105Z,62.20
2023-01-23T21:25:09.944Z,62.13
2023-01-23T21:30:31.912Z,62.50
2023-01-23T21:35:54.683Z,64.78
2023-01-23T21:41:16.996Z,61.63
2023-01-23T21:46:38.976Z,68.30
2023-01-23T21:52:00.913Z,71.22
2023-01-23T21:57:23.068Z,64.82
2023-01-23T22:02:45.189Z,68.47
2023-01-23T22:08:07.279Z,77.85
2023-01-23T22:13:31.957Z,70.15
2023-01-23T22:18:53.839Z,70.25
2023-01-23T22:24:15.969Z,75.80
2023-01-23T22:29:37.831Z,66.40
2023-01-23T22:34:59.829Z,73.20
2023-01-23T22:40:21.725Z,71.07
2023-01-23T22:45:43.581Z,66.47
2023-01-23T22:51:08.497Z,68.68
2023-01-23T22:56:31.489Z,71.55
2023-01-23T23:01:53.315Z,67.50
2023-01-23T23:07:16.275Z,67.93
2023-01-23T23:12:38.180Z,78.75
2023-01-23T23:18:00.180Z,72.07
2023-01-23T23:23:22.058Z,71.30
2023-01-23T23:28:43.971Z,68.95
2023-01-23T23:34:05.973Z,69.50
2023-01-23T23:39:27.829Z,74.65
2023-01-23T23:44:49.669Z,62.65
2023-01-23T23:50:11.867Z,77.07
2023-01-23T23:55:33.735Z,65.90
